Terminal Aerodrome Forecast
Issued by NWS Detroit/Pontiac, MI

Home | Current Version | Previous Version | Text Only | Print | Product List | Glossary On
Versions: 1 2 3 4 5 6 7 8 9 10 11 12 13 14 15 16 17 18 19 20 21 22 23 24 25 26 27 28 29 30
000
FTUS43 KDTX 220800 AAA
TAFDTW
TAF AMD
KDTW 220823Z 2208/2312 VRB03KT 4SM BR SCT007 BKN012
      TEMPO 2209/2210 2SM BR BKN007
     FM221000 VRB03KT 2SM BR BKN007
     FM221200 09005KT 6SM BR BKN025
     FM221900 14005KT P6SM BKN050
     FM230100 09005KT P6SM SCT050 BKN120 OVC250
     FM230700 06005KT P6SM SCT120=

USA.gov is the U.S. government's official web portal to all federal, state and local government web resources and services.